sensor_id;sensor_type;location;lat;lon;timestamp;P1;durP1;ratioP1;P2;durP2;ratioP2
55254;SDS011;41118;44.634;11.182;2023-06-05T00:02:04;2.00;;;0.40;;
55254;SDS011;41118;44.634;11.182;2023-06-05T00:04:30;3.00;;;0.40;;
55254;SDS011;41118;44.634;11.182;2023-06-05T00:06:56;2.95;;;0.50;;
55254;SDS011;41118;44.634;11.182;2023-06-05T00:09:23;3.83;;;0.50;;
55254;SDS011;41118;44.634;11.182;2023-06-05T00:11:49;3.05;;;0.85;;
55254;SDS011;41118;44.634;11.182;2023-06-05T00:14:15;6.13;;;1.02;;
55254;SDS011;41118;44.634;11.182;2023-06-05T00:16:41;3.40;;;0.50;;
55254;SDS011;41118;44.634;11.182;2023-06-05T00:19:07;5.10;;;0.73;;
55254;SDS011;41118;44.634;11.182;2023-06-05T00:21:33;6.50;;;0.85;;
55254;SDS011;41118;44.634;11.182;2023-06-05T00:24:00;3.00;;;0.50;;
55254;SDS011;41118;44.634;11.182;2023-06-05T00:26:26;1.85;;;0.50;;
55254;SDS011;41118;44.634;11.182;2023-06-05T00:28:52;4.05;;;0.70;;
55254;SDS011;41118;44.634;11.182;2023-06-05T00:31:18;3.42;;;1.15;;
55254;SDS011;41118;44.634;11.182;2023-06-05T00:33:46;3.05;;;0.55;;
55254;SDS011;41118;44.634;11.182;2023-06-05T00:36:12;3.40;;;0.60;;
55254;SDS011;41118;44.634;11.182;2023-06-05T00:38:38;4.03;;;0.85;;
55254;SDS011;41118;44.634;11.182;2023-06-05T00:41:04;5.32;;;0.85;;
55254;SDS011;41118;44.634;11.182;2023-06-05T00:43:30;10.77;;;1.92;;
55254;SDS011;41118;44.634;11.182;2023-06-05T00:45:58;3.72;;;1.23;;
55254;SDS011;41118;44.634;11.182;2023-06-05T00:48:25;4.65;;;1.85;;
55254;SDS011;41118;44.634;11.182;2023-06-05T00:50:52;6.78;;;0.70;;
55254;SDS011;41118;44.634;11.182;2023-06-05T00:53:18;6.10;;;1.33;;
55254;SDS011;41118;44.634;11.182;2023-06-05T00:55:44;5.38;;;1.95;;
55254;SDS011;41118;44.634;11.182;2023-06-05T00:58:10;9.40;;;3.00;;
55254;SDS011;41118;44.634;11.182;2023-06-05T01:00:37;11.07;;;2.05;;
55254;SDS011;41118;44.634;11.182;2023-06-05T01:03:03;8.45;;;2.35;;
55254;SDS011;41118;44.634;11.182;2023-06-05T01:05:29;7.57;;;2.35;;
55254;SDS011;41118;44.634;11.182;2023-06-05T01:07:55;8.43;;;2.33;;
55254;SDS011;41118;44.634;11.182;2023-06-05T01:10:22;7.22;;;1.73;;
55254;SDS011;41118;44.634;11.182;2023-06-05T01:12:58;9.68;;;2.78;;
55254;SDS011;41118;44.634;11.182;2023-06-05T01:15:30;10.23;;;2.40;;
55254;SDS011;41118;44.634;11.182;2023-06-05T01:17:59;6.32;;;3.05;;
55254;SDS011;41118;44.634;11.182;2023-06-05T01:20:34;7.72;;;1.90;;
55254;SDS011;41118;44.634;11.182;2023-06-05T01:23:04;7.65;;;1.70;;
55254;SDS011;41118;44.634;11.182;2023-06-05T01:25:30;10.23;;;3.28;;
55254;SDS011;41118;44.634;11.182;2023-06-05T01:30:28;13.77;;;4.30;;
55254;SDS011;41118;44.634;11.182;2023-06-05T01:35:22;10.32;;;3.03;;
55254;SDS011;41118;44.634;11.182;2023-06-05T01:37:53;9.02;;;2.72;;
55254;SDS011;41118;44.634;11.182;2023-06-05T01:40:20;9.40;;;2.47;;
55254;SDS011;41118;44.634;11.182;2023-06-05T01:42:47;12.40;;;2.97;;
55254;SDS011;41118;44.634;11.182;2023-06-05T01:45:14;11.18;;;3.20;;
55254;SDS011;41118;44.634;11.182;2023-06-05T01:47:43;11.10;;;3.63;;
55254;SDS011;41118;44.634;11.182;2023-06-05T01:50:13;10.52;;;4.63;;
55254;SDS011;41118;44.634;11.182;2023-06-05T01:52:39;10.73;;;3.40;;
55254;SDS011;41118;44.634;11.182;2023-06-05T01:55:06;10.73;;;3.15;;
55254;SDS011;41118;44.634;11.182;2023-06-05T01:57:37;11.75;;;5.13;;
55254;SDS011;41118;44.634;11.182;2023-06-05T02:00:04;9.00;;;2.67;;
55254;SDS011;41118;44.634;11.182;2023-06-05T02:02:33;5.80;;;1.52;;
55254;SDS011;41118;44.634;11.182;2023-06-05T02:04:59;7.65;;;1.85;;
55254;SDS011;41118;44.634;11.182;2023-06-05T02:07:26;4.13;;;0.65;;
55254;SDS011;41118;44.634;11.182;2023-06-05T02:09:53;4.75;;;1.00;;
55254;SDS011;41118;44.634;11.182;2023-06-05T02:12:20;5.18;;;1.15;;
55254;SDS011;41118;44.634;11.182;2023-06-05T02:14:51;10.38;;;1.95;;
55254;SDS011;41118;44.634;11.182;2023-06-05T02:17:17;9.48;;;1.40;;
55254;SDS011;41118;44.634;11.182;2023-06-05T02:19:44;7.65;;;1.02;;
55254;SDS011;41118;44.634;11.182;2023-06-05T02:22:10;4.95;;;0.80;;
55254;SDS011;41118;44.634;11.182;2023-06-05T02:24:36;4.57;;;1.10;;
55254;SDS011;41118;44.634;11.182;2023-06-05T02:27:02;7.28;;;1.30;;
55254;SDS011;41118;44.634;11.182;2023-06-05T02:29:28;7.72;;;1.58;;
55254;SDS011;41118;44.634;11.182;2023-06-05T02:31:54;4.70;;;1.00;;
55254;SDS011;41118;44.634;11.182;2023-06-05T02:34:20;6.63;;;2.03;;
55254;SDS011;41118;44.634;11.182;2023-06-05T02:36:47;6.03;;;1.75;;
55254;SDS011;41118;44.634;11.182;2023-06-05T02:39:15;6.68;;;2.42;;
55254;SDS011;41118;44.634;11.182;2023-06-05T02:41:41;4.90;;;1.40;;
55254;SDS011;41118;44.634;11.182;2023-06-05T02:44:08;10.25;;;1.30;;
55254;SDS011;41118;44.634;11.182;2023-06-05T02:46:34;5.13;;;1.17;;
55254;SDS011;41118;44.634;11.182;2023-06-05T02:49:01;7.57;;;0.90;;
55254;SDS011;41118;44.634;11.182;2023-06-05T02:51:27;11.88;;;1.65;;
55254;SDS011;41118;44.634;11.182;2023-06-05T02:53:53;2.80;;;0.73;;
55254;SDS011;41118;44.634;11.182;2023-06-05T02:56:19;5.63;;;0.77;;
55254;SDS011;41118;44.634;11.182;2023-06-05T02:58:46;5.55;;;1.00;;
55254;SDS011;41118;44.634;11.182;2023-06-05T03:01:13;2.88;;;0.80;;
55254;SDS011;41118;44.634;11.182;2023-06-05T03:03:40;7.43;;;1.20;;
55254;SDS011;41118;44.634;11.182;2023-06-05T03:06:06;6.18;;;1.27;;
55254;SDS011;41118;44.634;11.182;2023-06-05T03:08:35;6.38;;;1.05;;
55254;SDS011;41118;44.634;11.182;2023-06-05T03:11:02;4.32;;;1.17;;
55254;SDS011;41118;44.634;11.182;2023-06-05T03:13:29;6.38;;;1.58;;
55254;SDS011;41118;44.634;11.182;2023-06-05T03:15:56;6.65;;;2.05;;
55254;SDS011;41118;44.634;11.182;2023-06-05T03:18:23;7.28;;;2.15;;
55254;SDS011;41118;44.634;11.182;2023-06-05T03:20:49;3.85;;;0.90;;
55254;SDS011;41118;44.634;11.182;2023-06-05T03:23:19;6.90;;;1.38;;
55254;SDS011;41118;44.634;11.182;2023-06-05T03:25:45;3.60;;;1.20;;
55254;SDS011;41118;44.634;11.182;2023-06-05T03:28:11;5.28;;;1.23;;
55254;SDS011;41118;44.634;11.182;2023-06-05T03:30:37;4.18;;;1.35;;
55254;SDS011;41118;44.634;11.182;2023-06-05T03:33:04;5.25;;;1.45;;
55254;SDS011;41118;44.634;11.182;2023-06-05T03:35:31;8.00;;;1.42;;
55254;SDS011;41118;44.634;11.182;2023-06-05T03:37:57;7.72;;;2.08;;
55254;SDS011;41118;44.634;11.182;2023-06-05T03:40:24;6.43;;;1.65;;
55254;SDS011;41118;44.634;11.182;2023-06-05T03:42:50;5.57;;;1.85;;
55254;SDS011;41118;44.634;11.182;2023-06-05T03:45:16;11.90;;;2.45;;
55254;SDS011;41118;44.634;11.182;2023-06-05T03:47:43;5.93;;;1.38;;
55254;SDS011;41118;44.634;11.182;2023-06-05T03:50:13;8.82;;;3.13;;
55254;SDS011;41118;44.634;11.182;2023-06-05T03:52:40;6.70;;;1.35;;
55254;SDS011;41118;44.634;11.182;2023-06-05T03:55:06;9.63;;;1.30;;
55254;SDS011;41118;44.634;11.182;2023-06-05T03:57:33;10.80;;;1.55;;
55254;SDS011;41118;44.634;11.182;2023-06-05T04:00:00;5.95;;;1.00;;
55254;SDS011;41118;44.634;11.182;2023-06-05T04:02:26;8.80;;;1.88;;
55254;SDS011;41118;44.634;11.182;2023-06-05T04:04:52;4.55;;;1.45;;
55254;SDS011;41118;44.634;11.182;2023-06-05T04:07:18;4.93;;;0.90;;
55254;SDS011;41118;44.634;11.182;2023-06-05T04:09:45;12.15;;;1.95;;
55254;SDS011;41118;44.634;11.182;2023-06-05T04:12:11;5.53;;;1.50;;
55254;SDS011;41118;44.634;11.182;2023-06-05T04:14:39;5.97;;;1.38;;
55254;SDS011;41118;44.634;11.182;2023-06-05T04:17:05;4.32;;;1.70;;
55254;SDS011;41118;44.634;11.182;2023-06-05T04:19:31;8.13;;;2.78;;
55254;SDS011;41118;44.634;11.182;2023-06-05T04:21:58;5.35;;;1.75;;
55254;SDS011;41118;44.634;11.182;2023-06-05T04:24:25;1.63;;;0.40;;
55254;SDS011;41118;44.634;11.182;2023-06-05T04:26:51;4.03;;;1.00;;
55254;SDS011;41118;44.634;11.182;2023-06-05T04:29:17;5.38;;;2.05;;
55254;SDS011;41118;44.634;11.182;2023-06-05T04:31:44;7.18;;;1.52;;
55254;SDS011;41118;44.634;11.182;2023-06-05T04:34:10;4.32;;;1.42;;
55254;SDS011;41118;44.634;11.182;2023-06-05T04:36:36;5.18;;;1.23;;
55254;SDS011;41118;44.634;11.182;2023-06-05T04:39:03;6.03;;;1.65;;
55254;SDS011;41118;44.634;11.182;2023-06-05T04:41:30;7.82;;;2.28;;
55254;SDS011;41118;44.634;11.182;2023-06-05T04:43:57;9.65;;;1.02;;
55254;SDS011;41118;44.634;11.182;2023-06-05T04:46:24;4.75;;;1.73;;
55254;SDS011;41118;44.634;11.182;2023-06-05T04:48:51;4.07;;;1.50;;
55254;SDS011;41118;44.634;11.182;2023-06-05T04:51:20;8.77;;;1.80;;
55254;SDS011;41118;44.634;11.182;2023-06-05T04:53:47;5.80;;;1.38;;
55254;SDS011;41118;44.634;11.182;2023-06-05T04:56:17;9.65;;;2.10;;
55254;SDS011;41118;44.634;11.182;2023-06-05T04:58:43;4.50;;;1.40;;
55254;SDS011;41118;44.634;11.182;2023-06-05T05:01:10;7.05;;;2.75;;
55254;SDS011;41118;44.634;11.182;2023-06-05T05:03:36;7.88;;;2.78;;
55254;SDS011;41118;44.634;11.182;2023-06-05T05:06:02;5.75;;;1.52;;
55254;SDS011;41118;44.634;11.182;2023-06-05T05:08:29;5.25;;;1.23;;
55254;SDS011;41118;44.634;11.182;2023-06-05T05:10:56;4.72;;;1.33;;
55254;SDS011;41118;44.634;11.182;2023-06-05T05:13:22;5.30;;;1.58;;
55254;SDS011;41118;44.634;11.182;2023-06-05T05:15:48;5.20;;;1.70;;
55254;SDS011;41118;44.634;11.182;2023-06-05T05:18:18;6.68;;;1.35;;
55254;SDS011;41118;44.634;11.182;2023-06-05T05:20:44;8.85;;;1.08;;
55254;SDS011;41118;44.634;11.182;2023-06-05T05:23:10;6.15;;;1.55;;
55254;SDS011;41118;44.634;11.182;2023-06-05T05:25:39;4.72;;;1.40;;
55254;SDS011;41118;44.634;11.182;2023-06-05T05:28:05;6.28;;;1.75;;
55254;SDS011;41118;44.634;11.182;2023-06-05T05:30:31;4.18;;;1.40;;
55254;SDS011;41118;44.634;11.182;2023-06-05T05:32:58;5.65;;;1.52;;
55254;SDS011;41118;44.634;11.182;2023-06-05T05:35:24;9.88;;;1.77;;
55254;SDS011;41118;44.634;11.182;2023-06-05T05:37:51;7.53;;;1.40;;
55254;SDS011;41118;44.634;11.182;2023-06-05T05:40:17;5.80;;;1.77;;
55254;SDS011;41118;44.634;11.182;2023-06-05T05:42:43;7.38;;;1.92;;
55254;SDS011;41118;44.634;11.182;2023-06-05T05:45:09;8.25;;;2.55;;
55254;SDS011;41118;44.634;11.182;2023-06-05T05:47:35;8.10;;;1.88;;
55254;SDS011;41118;44.634;11.182;2023-06-05T05:50:01;3.28;;;0.85;;
55254;SDS011;41118;44.634;11.182;2023-06-05T05:52:27;10.00;;;2.78;;
55254;SDS011;41118;44.634;11.182;2023-06-05T05:54:53;8.30;;;2.55;;
55254;SDS011;41118;44.634;11.182;2023-06-05T05:57:19;4.55;;;1.40;;
55254;SDS011;41118;44.634;11.182;2023-06-05T05:59:46;5.60;;;1.50;;
55254;SDS011;41118;44.634;11.182;2023-06-05T06:02:12;3.53;;;1.75;;
55254;SDS011;41118;44.634;11.182;2023-06-05T06:04:38;6.40;;;2.33;;
55254;SDS011;41118;44.634;11.182;2023-06-05T06:07:05;8.10;;;1.25;;
55254;SDS011;41118;44.634;11.182;2023-06-05T06:09:31;4.38;;;1.35;;
55254;SDS011;41118;44.634;11.182;2023-06-05T06:11:58;5.03;;;1.25;;
55254;SDS011;41118;44.634;11.182;2023-06-05T06:14:27;5.03;;;1.25;;
55254;SDS011;41118;44.634;11.182;2023-06-05T06:16:54;3.88;;;1.02;;
55254;SDS011;41118;44.634;11.182;2023-06-05T06:19:22;4.55;;;0.73;;
55254;SDS011;41118;44.634;11.182;2023-06-05T06:21:49;6.13;;;0.65;;
55254;SDS011;41118;44.634;11.182;2023-06-05T06:24:18;2.35;;;0.82;;
55254;SDS011;41118;44.634;11.182;2023-06-05T06:26:48;2.85;;;0.82;;
55254;SDS011;41118;44.634;11.182;2023-06-05T06:29:17;3.63;;;0.82;;
55254;SDS011;41118;44.634;11.182;2023-06-05T06:31:44;4.20;;;1.08;;
55254;SDS011;41118;44.634;11.182;2023-06-05T06:34:10;3.65;;;0.80;;
55254;SDS011;41118;44.634;11.182;2023-06-05T06:36:37;3.10;;;0.60;;
55254;SDS011;41118;44.634;11.182;2023-06-05T06:39:09;4.82;;;0.73;;
55254;SDS011;41118;44.634;11.182;2023-06-05T06:41:35;3.55;;;0.75;;
55254;SDS011;41118;44.634;11.182;2023-06-05T06:44:01;3.28;;;0.40;;
55254;SDS011;41118;44.634;11.182;2023-06-05T06:46:27;2.10;;;0.40;;
55254;SDS011;41118;44.634;11.182;2023-06-05T06:48:53;2.00;;;0.47;;
55254;SDS011;41118;44.634;11.182;2023-06-05T06:51:19;4.35;;;0.40;;
55254;SDS011;41118;44.634;11.182;2023-06-05T06:53:47;1.67;;;0.40;;
55254;SDS011;41118;44.634;11.182;2023-06-05T06:56:13;1.35;;;0.30;;
55254;SDS011;41118;44.634;11.182;2023-06-05T06:58:40;1.40;;;0.40;;
55254;SDS011;41118;44.634;11.182;2023-06-05T07:01:06;3.28;;;0.30;;
55254;SDS011;41118;44.634;11.182;2023-06-05T07:03:34;0.90;;;0.25;;
55254;SDS011;41118;44.634;11.182;2023-06-05T07:06:00;1.63;;;0.20;;
55254;SDS011;41118;44.634;11.182;2023-06-05T07:08:26;2.60;;;0.30;;
55254;SDS011;41118;44.634;11.182;2023-06-05T07:10:53;1.77;;;0.30;;
55254;SDS011;41118;44.634;11.182;2023-06-05T07:13:20;1.05;;;0.30;;
55254;SDS011;41118;44.634;11.182;2023-06-05T07:15:47;1.52;;;0.30;;
55254;SDS011;41118;44.634;11.182;2023-06-05T07:18:15;1.88;;;0.30;;
55254;SDS011;41118;44.634;11.182;2023-06-05T07:20:41;2.92;;;0.73;;
55254;SDS011;41118;44.634;11.182;2023-06-05T07:23:07;4.05;;;0.50;;
55254;SDS011;41118;44.634;11.182;2023-06-05T07:25:33;4.50;;;0.80;;
55254;SDS011;41118;44.634;11.182;2023-06-05T07:27:59;1.27;;;0.30;;
55254;SDS011;41118;44.634;11.182;2023-06-05T07:30:26;3.72;;;0.50;;
55254;SDS011;41118;44.634;11.182;2023-06-05T07:32:53;1.75;;;0.40;;
55254;SDS011;41118;44.634;11.182;2023-06-05T07:35:20;1.77;;;0.50;;
55254;SDS011;41118;44.634;11.182;2023-06-05T07:37:46;1.70;;;0.30;;
55254;SDS011;41118;44.634;11.182;2023-06-05T07:40:12;1.90;;;0.40;;
55254;SDS011;41118;44.634;11.182;2023-06-05T07:42:39;2.38;;;0.63;;
55254;SDS011;41118;44.634;11.182;2023-06-05T07:45:05;1.40;;;0.30;;
55254;SDS011;41118;44.634;11.182;2023-06-05T07:47:31;1.33;;;0.40;;
55254;SDS011;41118;44.634;11.182;2023-06-05T07:50:00;1.30;;;0.30;;
55254;SDS011;41118;44.634;11.182;2023-06-05T07:52:28;4.10;;;0.40;;
55254;SDS011;41118;44.634;11.182;2023-06-05T07:54:54;1.02;;;0.28;;
55254;SDS011;41118;44.634;11.182;2023-06-05T07:57:21;2.42;;;0.40;;
55254;SDS011;41118;44.634;11.182;2023-06-05T07:59:49;2.97;;;0.40;;
55254;SDS011;41118;44.634;11.182;2023-06-05T08:02:15;1.00;;;0.30;;
55254;SDS011;41118;44.634;11.182;2023-06-05T08:04:41;1.73;;;0.30;;
55254;SDS011;41118;44.634;11.182;2023-06-05T08:07:08;6.78;;;0.30;;
55254;SDS011;41118;44.634;11.182;2023-06-05T08:09:34;1.13;;;0.30;;
55254;SDS011;41118;44.634;11.182;2023-06-05T08:12:01;2.45;;;0.95;;
55254;SDS011;41118;44.634;11.182;2023-06-05T08:14:28;1.17;;;0.35;;
55254;SDS011;41118;44.634;11.182;2023-06-05T08:16:54;1.40;;;0.30;;
55254;SDS011;41118;44.634;11.182;2023-06-05T08:19:20;1.90;;;0.40;;
55254;SDS011;41118;44.634;11.182;2023-06-05T08:21:49;2.97;;;0.40;;
55254;SDS011;41118;44.634;11.182;2023-06-05T08:24:16;1.88;;;0.43;;
55254;SDS011;41118;44.634;11.182;2023-06-05T08:26:42;4.30;;;0.93;;
55254;SDS011;41118;44.634;11.182;2023-06-05T08:29:09;1.50;;;0.30;;
55254;SDS011;41118;44.634;11.182;2023-06-05T08:31:37;1.67;;;0.40;;
55254;SDS011;41118;44.634;11.182;2023-06-05T08:34:06;2.53;;;0.50;;
55254;SDS011;41118;44.634;11.182;2023-06-05T08:36:32;4.00;;;0.65;;
55254;SDS011;41118;44.634;11.182;2023-06-05T08:39:00;1.38;;;0.38;;
55254;SDS011;41118;44.634;11.182;2023-06-05T08:41:26;1.00;;;0.30;;
55254;SDS011;41118;44.634;11.182;2023-06-05T08:43:53;3.47;;;0.30;;
55254;SDS011;41118;44.634;11.182;2023-06-05T08:46:19;2.50;;;0.30;;
55254;SDS011;41118;44.634;11.182;2023-06-05T08:48:46;1.08;;;0.30;;
55254;SDS011;41118;44.634;11.182;2023-06-05T08:51:17;1.58;;;0.30;;
55254;SDS011;41118;44.634;11.182;2023-06-05T08:54:02;1.23;;;0.20;;
55254;SDS011;41118;44.634;11.182;2023-06-05T08:56:41;0.90;;;0.30;;
55254;SDS011;41118;44.634;11.182;2023-06-05T08:59:07;1.88;;;0.20;;
55254;SDS011;41118;44.634;11.182;2023-06-05T09:01:33;0.90;;;0.20;;
55254;SDS011;41118;44.634;11.182;2023-06-05T09:04:02;1.00;;;0.20;;
55254;SDS011;41118;44.634;11.182;2023-06-05T09:06:28;0.70;;;0.20;;
55254;SDS011;41118;44.634;11.182;2023-06-05T09:08:58;1.13;;;0.20;;
55254;SDS011;41118;44.634;11.182;2023-06-05T09:11:26;3.47;;;0.20;;
55254;SDS011;41118;44.634;11.182;2023-06-05T09:13:54;3.05;;;0.28;;
55254;SDS011;41118;44.634;11.182;2023-06-05T09:16:21;1.83;;;0.20;;
55254;SDS011;41118;44.634;11.182;2023-06-05T09:18:50;2.78;;;0.30;;
55254;SDS011;41118;44.634;11.182;2023-06-05T09:21:17;1.73;;;0.30;;
55254;SDS011;41118;44.634;11.182;2023-06-05T09:23:43;6.05;;;0.30;;
55254;SDS011;41118;44.634;11.182;2023-06-05T09:26:10;1.30;;;0.20;;
55254;SDS011;41118;44.634;11.182;2023-06-05T09:28:54;1.95;;;0.20;;
55254;SDS011;41118;44.634;11.182;2023-06-05T09:31:22;2.28;;;0.25;;
55254;SDS011;41118;44.634;11.182;2023-06-05T09:33:55;0.75;;;0.20;;
55254;SDS011;41118;44.634;11.182;2023-06-05T09:36:21;1.33;;;0.20;;
55254;SDS011;41118;44.634;11.182;2023-06-05T09:38:47;0.77;;;0.20;;
55254;SDS011;41118;44.634;11.182;2023-06-05T09:41:15;1.00;;;0.20;;
55254;SDS011;41118;44.634;11.182;2023-06-05T09:43:44;0.60;;;0.10;;
55254;SDS011;41118;44.634;11.182;2023-06-05T09:46:16;2.92;;;0.20;;
55254;SDS011;41118;44.634;11.182;2023-06-05T09:48:43;1.88;;;0.20;;
55254;SDS011;41118;44.634;11.182;2023-06-05T09:51:16;2.40;;;0.40;;
55254;SDS011;41118;44.634;11.182;2023-06-05T09:53:44;1.42;;;0.20;;
55254;SDS011;41118;44.634;11.182;2023-06-05T09:56:11;2.20;;;0.45;;
55254;SDS011;41118;44.634;11.182;2023-06-05T09:58:37;5.65;;;0.30;;
55254;SDS011;41118;44.634;11.182;2023-06-05T10:01:04;0.82;;;0.20;;
55254;SDS011;41118;44.634;11.182;2023-06-05T10:03:32;2.78;;;0.30;;
55254;SDS011;41118;44.634;11.182;2023-06-05T10:06:01;1.15;;;0.20;;
55254;SDS011;41118;44.634;11.182;2023-06-05T10:08:28;0.60;;;0.20;;
55254;SDS011;41118;44.634;11.182;2023-06-05T10:10:55;0.50;;;0.10;;
55254;SDS011;41118;44.634;11.182;2023-06-05T10:13:21;7.15;;;0.38;;
55254;SDS011;41118;44.634;11.182;2023-06-05T10:15:47;1.75;;;0.20;;
55254;SDS011;41118;44.634;11.182;2023-06-05T10:18:14;1.25;;;0.20;;
55254;SDS011;41118;44.634;11.182;2023-06-05T10:20:40;3.40;;;0.20;;
55254;SDS011;41118;44.634;11.182;2023-06-05T10:23:06;1.08;;;0.20;;
55254;SDS011;41118;44.634;11.182;2023-06-05T10:25:33;1.50;;;0.20;;
55254;SDS011;41118;44.634;11.182;2023-06-05T10:33:34;1.17;;;0.17;;
55254;SDS011;41118;44.634;11.182;2023-06-05T10:36:10;1.63;;;0.20;;
55254;SDS011;41118;44.634;11.182;2023-06-05T10:38:44;0.50;;;0.10;;
55254;SDS011;41118;44.634;11.182;2023-06-05T10:41:10;1.42;;;0.20;;
55254;SDS011;41118;44.634;11.182;2023-06-05T10:43:46;0.80;;;0.20;;
55254;SDS011;41118;44.634;11.182;2023-06-05T10:51:46;0.77;;;0.20;;
55254;SDS011;41118;44.634;11.182;2023-06-05T10:54:53;1.33;;;0.10;;
55254;SDS011;41118;44.634;11.182;2023-06-05T10:57:06;0.57;;;0.20;;
55254;SDS011;41118;44.634;11.182;2023-06-05T11:07:16;0.80;;;0.20;;
55254;SDS011;41118;44.634;11.182;2023-06-05T11:12:52;0.70;;;0.20;;
55254;SDS011;41118;44.634;11.182;2023-06-05T11:15:14;0.90;;;0.20;;
55254;SDS011;41118;44.634;11.182;2023-06-05T11:17:41;2.10;;;0.30;;
55254;SDS011;41118;44.634;11.182;2023-06-05T11:28:02;0.90;;;0.28;;
55254;SDS011;41118;44.634;11.182;2023-06-05T11:30:39;2.63;;;0.22;;
55254;SDS011;41118;44.634;11.182;2023-06-05T11:35:34;0.52;;;0.20;;
55254;SDS011;41118;44.634;11.182;2023-06-05T11:38:16;0.50;;;0.17;;
55254;SDS011;41118;44.634;11.182;2023-06-05T11:40:43;3.25;;;0.10;;
55254;SDS011;41118;44.634;11.182;2023-06-05T11:43:10;0.45;;;0.10;;
55254;SDS011;41118;44.634;11.182;2023-06-05T11:45:37;0.60;;;0.10;;
55254;SDS011;41118;44.634;11.182;2023-06-05T11:48:03;0.82;;;0.13;;
55254;SDS011;41118;44.634;11.182;2023-06-05T11:50:30;0.75;;;0.10;;
55254;SDS011;41118;44.634;11.182;2023-06-05T11:53:09;0.50;;;0.10;;
55254;SDS011;41118;44.634;11.182;2023-06-05T11:55:36;1.00;;;0.10;;
55254;SDS011;41118;44.634;11.182;2023-06-05T11:58:28;0.98;;;0.20;;
55254;SDS011;41118;44.634;11.182;2023-06-05T12:03:29;0.57;;;0.10;;
55254;SDS011;41118;44.634;11.182;2023-06-05T12:05:57;0.40;;;0.10;;
55254;SDS011;41118;44.634;11.182;2023-06-05T12:08:24;0.90;;;0.20;;
55254;SDS011;41118;44.634;11.182;2023-06-05T12:10:54;1.23;;;0.10;;
55254;SDS011;41118;44.634;11.182;2023-06-05T12:13:23;0.50;;;0.20;;
55254;SDS011;41118;44.634;11.182;2023-06-05T12:15:55;0.98;;;0.10;;
55254;SDS011;41118;44.634;11.182;2023-06-05T12:18:30;0.40;;;0.10;;
55254;SDS011;41118;44.634;11.182;2023-06-05T12:20:56;0.77;;;0.25;;
55254;SDS011;41118;44.634;11.182;2023-06-05T12:23:29;0.30;;;0.10;;
55254;SDS011;41118;44.634;11.182;2023-06-05T12:26:07;1.10;;;0.20;;
55254;SDS011;41118;44.634;11.182;2023-06-05T12:28:33;3.30;;;0.20;;
55254;SDS011;41118;44.634;11.182;2023-06-05T12:30:59;0.50;;;0.10;;
55254;SDS011;41118;44.634;11.182;2023-06-05T12:33:25;0.45;;;0.10;;
55254;SDS011;41118;44.634;11.182;2023-06-05T12:38:29;1.95;;;0.20;;
55254;SDS011;41118;44.634;11.182;2023-06-05T12:40:55;1.15;;;0.20;;
55254;SDS011;41118;44.634;11.182;2023-06-05T12:43:22;1.00;;;0.40;;
55254;SDS011;41118;44.634;11.182;2023-06-05T12:45:48;9.52;;;0.30;;
55254;SDS011;41118;44.634;11.182;2023-06-05T12:48:15;1.60;;;0.20;;
55254;SDS011;41118;44.634;11.182;2023-06-05T12:50:41;0.90;;;0.30;;
55254;SDS011;41118;44.634;11.182;2023-06-05T12:53:08;0.90;;;0.10;;
55254;SDS011;41118;44.634;11.182;2023-06-05T12:55:34;0.60;;;0.13;;
55254;SDS011;41118;44.634;11.182;2023-06-05T12:58:00;0.40;;;0.10;;
55254;SDS011;41118;44.634;11.182;2023-06-05T13:00:26;0.73;;;0.10;;
55254;SDS011;41118;44.634;11.182;2023-06-05T13:02:52;0.40;;;0.10;;
55254;SDS011;41118;44.634;11.182;2023-06-05T13:05:19;4.25;;;0.10;;
55254;SDS011;41118;44.634;11.182;2023-06-05T13:07:45;0.50;;;0.10;;
55254;SDS011;41118;44.634;11.182;2023-06-05T13:10:11;0.45;;;0.10;;
55254;SDS011;41118;44.634;11.182;2023-06-05T13:12:37;0.70;;;0.10;;
55254;SDS011;41118;44.634;11.182;2023-06-05T13:15:03;0.88;;;0.10;;
55254;SDS011;41118;44.634;11.182;2023-06-05T13:17:32;1.25;;;0.10;;
55254;SDS011;41118;44.634;11.182;2023-06-05T13:19:59;0.70;;;0.10;;
55254;SDS011;41118;44.634;11.182;2023-06-05T13:22:25;2.03;;;0.10;;
55254;SDS011;41118;44.634;11.182;2023-06-05T13:24:51;1.10;;;0.20;;
55254;SDS011;41118;44.634;11.182;2023-06-05T13:27:17;0.70;;;0.10;;
55254;SDS011;41118;44.634;11.182;2023-06-05T13:29:44;0.75;;;0.17;;
55254;SDS011;41118;44.634;11.182;2023-06-05T13:32:10;1.08;;;0.20;;
55254;SDS011;41118;44.634;11.182;2023-06-05T13:34:37;0.30;;;0.03;;
55254;SDS011;41118;44.634;11.182;2023-06-05T13:37:03;0.80;;;0.20;;
55254;SDS011;41118;44.634;11.182;2023-06-05T13:39:29;1.05;;;0.20;;
55254;SDS011;41118;44.634;11.182;2023-06-05T13:41:55;1.85;;;0.20;;
55254;SDS011;41118;44.634;11.182;2023-06-05T13:44:21;3.38;;;0.20;;
55254;SDS011;41118;44.634;11.182;2023-06-05T13:46:47;2.10;;;0.20;;
55254;SDS011;41118;44.634;11.182;2023-06-05T13:49:13;0.60;;;0.20;;
55254;SDS011;41118;44.634;11.182;2023-06-05T13:51:40;0.70;;;0.20;;
55254;SDS011;41118;44.634;11.182;2023-06-05T13:54:07;0.90;;;0.20;;
55254;SDS011;41118;44.634;11.182;2023-06-05T13:56:33;0.85;;;0.22;;
55254;SDS011;41118;44.634;11.182;2023-06-05T13:58:59;2.75;;;0.20;;
55254;SDS011;41118;44.634;11.182;2023-06-05T14:01:25;4.38;;;0.30;;
55254;SDS011;41118;44.634;11.182;2023-06-05T14:03:51;1.25;;;0.30;;
55254;SDS011;41118;44.634;11.182;2023-06-05T14:06:17;2.95;;;0.50;;
55254;SDS011;41118;44.634;11.182;2023-06-05T14:08:44;1.30;;;0.30;;
55254;SDS011;41118;44.634;11.182;2023-06-05T14:11:10;0.98;;;0.20;;
55254;SDS011;41118;44.634;11.182;2023-06-05T14:13:36;1.33;;;0.40;;
55254;SDS011;41118;44.634;11.182;2023-06-05T14:16:03;2.40;;;0.50;;
55254;SDS011;41118;44.634;11.182;2023-06-05T14:18:29;0.80;;;0.20;;
55254;SDS011;41118;44.634;11.182;2023-06-05T14:20:56;3.28;;;0.30;;
55254;SDS011;41118;44.634;11.182;2023-06-05T14:23:22;1.50;;;0.30;;
55254;SDS011;41118;44.634;11.182;2023-06-05T14:25:51;2.55;;;0.40;;
55254;SDS011;41118;44.634;11.182;2023-06-05T14:28:18;3.60;;;0.28;;
55254;SDS011;41118;44.634;11.182;2023-06-05T14:30:47;1.85;;;0.45;;
55254;SDS011;41118;44.634;11.182;2023-06-05T14:33:13;1.10;;;0.30;;
55254;SDS011;41118;44.634;11.182;2023-06-05T14:35:41;0.90;;;0.20;;
55254;SDS011;41118;44.634;11.182;2023-06-05T14:38:08;1.00;;;0.28;;
55254;SDS011;41118;44.634;11.182;2023-06-05T14:40:37;4.90;;;0.30;;
55254;SDS011;41118;44.634;11.182;2023-06-05T14:43:03;1.00;;;0.40;;
55254;SDS011;41118;44.634;11.182;2023-06-05T14:45:29;1.17;;;0.25;;
55254;SDS011;41118;44.634;11.182;2023-06-05T14:47:55;1.50;;;0.20;;
55254;SDS011;41118;44.634;11.182;2023-06-05T14:50:21;1.13;;;0.30;;
55254;SDS011;41118;44.634;11.182;2023-06-05T14:52:47;1.83;;;0.28;;
55254;SDS011;41118;44.634;11.182;2023-06-05T14:55:13;1.30;;;0.30;;
55254;SDS011;41118;44.634;11.182;2023-06-05T14:57:39;0.70;;;0.20;;
55254;SDS011;41118;44.634;11.182;2023-06-05T15:00:06;2.15;;;0.45;;
55254;SDS011;41118;44.634;11.182;2023-06-05T15:02:32;0.70;;;0.10;;
55254;SDS011;41118;44.634;11.182;2023-06-05T15:04:58;0.85;;;0.30;;
55254;SDS011;41118;44.634;11.182;2023-06-05T15:07:24;1.00;;;0.20;;
55254;SDS011;41118;44.634;11.182;2023-06-05T15:09:50;1.00;;;0.20;;
55254;SDS011;41118;44.634;11.182;2023-06-05T15:12:17;0.80;;;0.20;;
55254;SDS011;41118;44.634;11.182;2023-06-05T15:14:43;1.23;;;0.20;;
55254;SDS011;41118;44.634;11.182;2023-06-05T15:17:09;1.33;;;0.22;;